sensor_id;sensor_type;location;lat;lon;timestamp;P1;durP1;ratioP1;P2;durP2;ratioP2
75016;SDS011;63577;39.766;2.720;2023-02-05T00:02:14;34.90;;;18.50;;
75016;SDS011;63577;39.766;2.720;2023-02-05T00:04:39;36.60;;;19.20;;
75016;SDS011;63577;39.766;2.720;2023-02-05T00:07:05;33.60;;;19.30;;
75016;SDS011;63577;39.766;2.720;2023-02-05T00:09:30;36.80;;;20.30;;
75016;SDS011;63577;39.766;2.720;2023-02-05T00:11:56;41.70;;;22.70;;
75016;SDS011;63577;39.766;2.720;2023-02-05T00:14:22;59.50;;;29.20;;
75016;SDS011;63577;39.766;2.720;2023-02-05T00:16:48;46.10;;;24.60;;
75016;SDS011;63577;39.766;2.720;2023-02-05T00:19:14;34.30;;;16.40;;
75016;SDS011;63577;39.766;2.720;2023-02-05T00:21:39;49.30;;;23.90;;
75016;SDS011;63577;39.766;2.720;2023-02-05T00:24:05;31.90;;;19.00;;
75016;SDS011;63577;39.766;2.720;2023-02-05T00:26:30;28.90;;;15.90;;
75016;SDS011;63577;39.766;2.720;2023-02-05T00:28:56;30.50;;;15.00;;
75016;SDS011;63577;39.766;2.720;2023-02-05T00:31:21;29.20;;;13.80;;
75016;SDS011;63577;39.766;2.720;2023-02-05T00:33:47;28.80;;;15.60;;
75016;SDS011;63577;39.766;2.720;2023-02-05T00:36:13;98.80;;;35.70;;
75016;SDS011;63577;39.766;2.720;2023-02-05T00:38:39;96.40;;;37.00;;
75016;SDS011;63577;39.766;2.720;2023-02-05T00:41:05;44.20;;;20.70;;
75016;SDS011;63577;39.766;2.720;2023-02-05T00:43:30;51.60;;;22.20;;
75016;SDS011;63577;39.766;2.720;2023-02-05T00:45:56;18.90;;;8.60;;
75016;SDS011;63577;39.766;2.720;2023-02-05T00:48:21;32.40;;;12.40;;
75016;SDS011;63577;39.766;2.720;2023-02-05T00:50:47;26.00;;;12.40;;
75016;SDS011;63577;39.766;2.720;2023-02-05T00:53:13;25.30;;;11.20;;
75016;SDS011;63577;39.766;2.720;2023-02-05T00:55:39;46.80;;;18.40;;
75016;SDS011;63577;39.766;2.720;2023-02-05T00:58:04;35.40;;;17.00;;
75016;SDS011;63577;39.766;2.720;2023-02-05T01:00:29;46.40;;;21.50;;
75016;SDS011;63577;39.766;2.720;2023-02-05T01:02:55;19.10;;;10.40;;
75016;SDS011;63577;39.766;2.720;2023-02-05T01:05:20;31.70;;;19.40;;
75016;SDS011;63577;39.766;2.720;2023-02-05T01:07:45;23.30;;;13.40;;
75016;SDS011;63577;39.766;2.720;2023-02-05T01:10:11;24.10;;;15.70;;
75016;SDS011;63577;39.766;2.720;2023-02-05T01:12:36;24.00;;;13.20;;
75016;SDS011;63577;39.766;2.720;2023-02-05T01:15:03;23.60;;;14.10;;
75016;SDS011;63577;39.766;2.720;2023-02-05T01:17:29;25.70;;;15.90;;
75016;SDS011;63577;39.766;2.720;2023-02-05T01:19:54;27.90;;;16.50;;
75016;SDS011;63577;39.766;2.720;2023-02-05T01:22:20;22.90;;;12.30;;
75016;SDS011;63577;39.766;2.720;2023-02-05T01:24:45;20.00;;;12.10;;
75016;SDS011;63577;39.766;2.720;2023-02-05T01:27:10;24.50;;;13.90;;
75016;SDS011;63577;39.766;2.720;2023-02-05T01:29:36;23.20;;;14.50;;
75016;SDS011;63577;39.766;2.720;2023-02-05T01:32:01;20.10;;;11.10;;
75016;SDS011;63577;39.766;2.720;2023-02-05T01:34:26;19.20;;;11.10;;
75016;SDS011;63577;39.766;2.720;2023-02-05T01:36:52;16.70;;;9.00;;
75016;SDS011;63577;39.766;2.720;2023-02-05T01:39:17;17.10;;;8.30;;
75016;SDS011;63577;39.766;2.720;2023-02-05T01:41:42;13.60;;;8.50;;
75016;SDS011;63577;39.766;2.720;2023-02-05T01:44:13;13.70;;;6.90;;
75016;SDS011;63577;39.766;2.720;2023-02-05T01:46:43;13.00;;;7.70;;
75016;SDS011;63577;39.766;2.720;2023-02-05T01:49:11;15.40;;;8.00;;
75016;SDS011;63577;39.766;2.720;2023-02-05T01:51:38;13.70;;;6.90;;
75016;SDS011;63577;39.766;2.720;2023-02-05T01:54:03;16.50;;;7.80;;
75016;SDS011;63577;39.766;2.720;2023-02-05T01:56:51;14.10;;;7.80;;
75016;SDS011;63577;39.766;2.720;2023-02-05T01:59:15;14.20;;;8.60;;
75016;SDS011;63577;39.766;2.720;2023-02-05T02:01:41;21.30;;;12.70;;
75016;SDS011;63577;39.766;2.720;2023-02-05T02:04:07;16.80;;;10.10;;
75016;SDS011;63577;39.766;2.720;2023-02-05T02:06:34;16.00;;;8.00;;
75016;SDS011;63577;39.766;2.720;2023-02-05T02:09:00;15.60;;;8.60;;
75016;SDS011;63577;39.766;2.720;2023-02-05T02:11:27;14.20;;;7.20;;
75016;SDS011;63577;39.766;2.720;2023-02-05T02:13:53;15.30;;;7.50;;
75016;SDS011;63577;39.766;2.720;2023-02-05T02:16:20;16.90;;;9.50;;
75016;SDS011;63577;39.766;2.720;2023-02-05T02:18:45;17.10;;;9.40;;
75016;SDS011;63577;39.766;2.720;2023-02-05T02:21:16;17.00;;;9.30;;
75016;SDS011;63577;39.766;2.720;2023-02-05T02:26:31;11.70;;;5.90;;
75016;SDS011;63577;39.766;2.720;2023-02-05T02:29:04;8.60;;;4.00;;
75016;SDS011;63577;39.766;2.720;2023-02-05T02:31:43;12.10;;;4.00;;
75016;SDS011;63577;39.766;2.720;2023-02-05T02:34:13;6.50;;;2.70;;
75016;SDS011;63577;39.766;2.720;2023-02-05T02:37:00;10.10;;;4.30;;
75016;SDS011;63577;39.766;2.720;2023-02-05T02:44:31;6.10;;;2.30;;
75016;SDS011;63577;39.766;2.720;2023-02-05T02:46:58;5.80;;;1.70;;
75016;SDS011;63577;39.766;2.720;2023-02-05T02:49:33;4.90;;;1.60;;
75016;SDS011;63577;39.766;2.720;2023-02-05T02:52:02;6.60;;;2.00;;
75016;SDS011;63577;39.766;2.720;2023-02-05T02:54:27;4.50;;;1.70;;
75016;SDS011;63577;39.766;2.720;2023-02-05T02:56:53;2.90;;;0.90;;
75016;SDS011;63577;39.766;2.720;2023-02-05T02:59:20;7.00;;;1.30;;
75016;SDS011;63577;39.766;2.720;2023-02-05T03:01:48;3.70;;;1.00;;
75016;SDS011;63577;39.766;2.720;2023-02-05T03:12:03;4.40;;;1.20;;
75016;SDS011;63577;39.766;2.720;2023-02-05T03:14:29;3.40;;;0.80;;
75016;SDS011;63577;39.766;2.720;2023-02-05T03:16:54;4.70;;;0.90;;
75016;SDS011;63577;39.766;2.720;2023-02-05T03:19:20;4.80;;;1.10;;
75016;SDS011;63577;39.766;2.720;2023-02-05T03:21:46;4.10;;;1.60;;
75016;SDS011;63577;39.766;2.720;2023-02-05T03:24:12;4.00;;;1.00;;
75016;SDS011;63577;39.766;2.720;2023-02-05T03:26:37;4.30;;;1.20;;
75016;SDS011;63577;39.766;2.720;2023-02-05T03:29:04;4.10;;;1.20;;
75016;SDS011;63577;39.766;2.720;2023-02-05T03:36:54;3.70;;;0.90;;
75016;SDS011;63577;39.766;2.720;2023-02-05T03:41:53;2.20;;;0.70;;
75016;SDS011;63577;39.766;2.720;2023-02-05T03:44:50;2.70;;;0.70;;
75016;SDS011;63577;39.766;2.720;2023-02-05T03:52:15;3.20;;;1.10;;
75016;SDS011;63577;39.766;2.720;2023-02-05T03:57:17;2.80;;;0.70;;
75016;SDS011;63577;39.766;2.720;2023-02-05T03:59:44;2.80;;;0.60;;
75016;SDS011;63577;39.766;2.720;2023-02-05T04:02:10;2.40;;;0.70;;
75016;SDS011;63577;39.766;2.720;2023-02-05T04:04:36;2.10;;;0.60;;
75016;SDS011;63577;39.766;2.720;2023-02-05T04:07:01;4.70;;;1.00;;
75016;SDS011;63577;39.766;2.720;2023-02-05T04:09:27;2.60;;;0.90;;
75016;SDS011;63577;39.766;2.720;2023-02-05T04:11:52;2.10;;;0.70;;
75016;SDS011;63577;39.766;2.720;2023-02-05T04:14:18;5.20;;;0.80;;
75016;SDS011;63577;39.766;2.720;2023-02-05T04:16:43;3.80;;;0.80;;
75016;SDS011;63577;39.766;2.720;2023-02-05T04:19:08;3.30;;;0.90;;
75016;SDS011;63577;39.766;2.720;2023-02-05T04:21:34;3.60;;;1.20;;
75016;SDS011;63577;39.766;2.720;2023-02-05T04:23:59;3.20;;;1.00;;
75016;SDS011;63577;39.766;2.720;2023-02-05T04:26:24;3.90;;;1.10;;
75016;SDS011;63577;39.766;2.720;2023-02-05T04:28:50;3.10;;;0.80;;
75016;SDS011;63577;39.766;2.720;2023-02-05T04:31:15;4.50;;;0.90;;
75016;SDS011;63577;39.766;2.720;2023-02-05T04:33:40;4.50;;;0.90;;
75016;SDS011;63577;39.766;2.720;2023-02-05T04:36:06;3.70;;;1.20;;
75016;SDS011;63577;39.766;2.720;2023-02-05T04:38:32;4.60;;;1.20;;
75016;SDS011;63577;39.766;2.720;2023-02-05T04:40:57;3.80;;;0.80;;
75016;SDS011;63577;39.766;2.720;2023-02-05T04:43:23;3.80;;;1.20;;
75016;SDS011;63577;39.766;2.720;2023-02-05T04:45:48;7.10;;;1.60;;
75016;SDS011;63577;39.766;2.720;2023-02-05T04:48:14;5.00;;;1.10;;
75016;SDS011;63577;39.766;2.720;2023-02-05T04:50:39;3.10;;;0.90;;
75016;SDS011;63577;39.766;2.720;2023-02-05T04:53:05;4.10;;;1.20;;
75016;SDS011;63577;39.766;2.720;2023-02-05T04:55:30;5.90;;;1.20;;
75016;SDS011;63577;39.766;2.720;2023-02-05T04:57:56;2.70;;;0.80;;
75016;SDS011;63577;39.766;2.720;2023-02-05T05:00:22;3.70;;;0.80;;
75016;SDS011;63577;39.766;2.720;2023-02-05T05:02:47;5.20;;;1.00;;
75016;SDS011;63577;39.766;2.720;2023-02-05T05:05:13;5.00;;;0.90;;
75016;SDS011;63577;39.766;2.720;2023-02-05T05:07:38;4.60;;;1.10;;
75016;SDS011;63577;39.766;2.720;2023-02-05T05:10:04;6.60;;;1.20;;
75016;SDS011;63577;39.766;2.720;2023-02-05T05:12:31;4.60;;;1.20;;
75016;SDS011;63577;39.766;2.720;2023-02-05T05:14:57;7.30;;;1.40;;
75016;SDS011;63577;39.766;2.720;2023-02-05T05:17:22;4.90;;;1.10;;
75016;SDS011;63577;39.766;2.720;2023-02-05T05:19:47;5.70;;;1.00;;
75016;SDS011;63577;39.766;2.720;2023-02-05T05:22:13;3.90;;;0.90;;
75016;SDS011;63577;39.766;2.720;2023-02-05T05:24:38;4.60;;;0.90;;
75016;SDS011;63577;39.766;2.720;2023-02-05T05:27:03;6.00;;;1.10;;
75016;SDS011;63577;39.766;2.720;2023-02-05T05:29:29;4.70;;;1.20;;
75016;SDS011;63577;39.766;2.720;2023-02-05T05:31:54;5.20;;;1.00;;
75016;SDS011;63577;39.766;2.720;2023-02-05T05:34:20;5.00;;;1.10;;
75016;SDS011;63577;39.766;2.720;2023-02-05T05:36:45;6.20;;;1.50;;
75016;SDS011;63577;39.766;2.720;2023-02-05T05:39:12;7.30;;;1.40;;
75016;SDS011;63577;39.766;2.720;2023-02-05T05:41:56;6.70;;;1.40;;
75016;SDS011;63577;39.766;2.720;2023-02-05T05:44:40;5.30;;;1.20;;
75016;SDS011;63577;39.766;2.720;2023-02-05T05:47:06;5.40;;;1.20;;
75016;SDS011;63577;39.766;2.720;2023-02-05T05:49:31;6.90;;;1.20;;
75016;SDS011;63577;39.766;2.720;2023-02-05T05:51:56;8.60;;;1.40;;
75016;SDS011;63577;39.766;2.720;2023-02-05T05:54:22;8.80;;;1.70;;
75016;SDS011;63577;39.766;2.720;2023-02-05T05:56:47;6.20;;;1.20;;
75016;SDS011;63577;39.766;2.720;2023-02-05T05:59:14;5.50;;;0.90;;
75016;SDS011;63577;39.766;2.720;2023-02-05T06:01:39;5.00;;;1.00;;
75016;SDS011;63577;39.766;2.720;2023-02-05T06:04:05;5.30;;;1.20;;
75016;SDS011;63577;39.766;2.720;2023-02-05T06:06:30;7.00;;;1.20;;
75016;SDS011;63577;39.766;2.720;2023-02-05T06:08:55;6.50;;;1.40;;
75016;SDS011;63577;39.766;2.720;2023-02-05T06:11:21;7.70;;;1.60;;
75016;SDS011;63577;39.766;2.720;2023-02-05T06:13:46;7.10;;;1.20;;
75016;SDS011;63577;39.766;2.720;2023-02-05T06:16:11;7.40;;;1.60;;
75016;SDS011;63577;39.766;2.720;2023-02-05T06:18:36;6.30;;;1.60;;
75016;SDS011;63577;39.766;2.720;2023-02-05T06:21:02;6.00;;;1.50;;
75016;SDS011;63577;39.766;2.720;2023-02-05T06:23:30;6.00;;;1.50;;
75016;SDS011;63577;39.766;2.720;2023-02-05T06:25:56;10.40;;;1.40;;
75016;SDS011;63577;39.766;2.720;2023-02-05T06:28:21;6.00;;;1.50;;
75016;SDS011;63577;39.766;2.720;2023-02-05T06:30:46;7.00;;;1.50;;
75016;SDS011;63577;39.766;2.720;2023-02-05T06:33:12;6.50;;;1.60;;
75016;SDS011;63577;39.766;2.720;2023-02-05T06:35:37;8.10;;;1.80;;
75016;SDS011;63577;39.766;2.720;2023-02-05T06:38:03;5.90;;;1.40;;
75016;SDS011;63577;39.766;2.720;2023-02-05T06:40:28;6.30;;;1.60;;
75016;SDS011;63577;39.766;2.720;2023-02-05T06:42:54;5.70;;;1.40;;
75016;SDS011;63577;39.766;2.720;2023-02-05T06:45:20;6.70;;;1.70;;
75016;SDS011;63577;39.766;2.720;2023-02-05T06:47:45;7.40;;;1.50;;
75016;SDS011;63577;39.766;2.720;2023-02-05T06:50:11;6.20;;;1.80;;
75016;SDS011;63577;39.766;2.720;2023-02-05T06:52:37;7.00;;;1.90;;
75016;SDS011;63577;39.766;2.720;2023-02-05T06:55:02;9.10;;;1.80;;
75016;SDS011;63577;39.766;2.720;2023-02-05T06:57:28;5.50;;;1.70;;
75016;SDS011;63577;39.766;2.720;2023-02-05T06:59:56;7.50;;;1.60;;
75016;SDS011;63577;39.766;2.720;2023-02-05T07:02:21;7.40;;;1.70;;
75016;SDS011;63577;39.766;2.720;2023-02-05T07:04:46;7.50;;;1.60;;
75016;SDS011;63577;39.766;2.720;2023-02-05T07:07:12;7.20;;;1.70;;
75016;SDS011;63577;39.766;2.720;2023-02-05T07:09:37;7.70;;;1.90;;
75016;SDS011;63577;39.766;2.720;2023-02-05T07:12:03;7.00;;;1.70;;
75016;SDS011;63577;39.766;2.720;2023-02-05T07:14:28;6.00;;;1.80;;
75016;SDS011;63577;39.766;2.720;2023-02-05T07:16:55;7.40;;;2.10;;
75016;SDS011;63577;39.766;2.720;2023-02-05T07:19:21;9.40;;;1.90;;
75016;SDS011;63577;39.766;2.720;2023-02-05T07:21:46;6.60;;;1.80;;
75016;SDS011;63577;39.766;2.720;2023-02-05T07:24:11;10.30;;;1.80;;
75016;SDS011;63577;39.766;2.720;2023-02-05T07:26:37;10.80;;;2.20;;
75016;SDS011;63577;39.766;2.720;2023-02-05T07:29:02;10.20;;;2.30;;
75016;SDS011;63577;39.766;2.720;2023-02-05T07:31:28;7.10;;;2.20;;
75016;SDS011;63577;39.766;2.720;2023-02-05T07:33:53;26.70;;;15.20;;
75016;SDS011;63577;39.766;2.720;2023-02-05T07:36:18;9.50;;;2.50;;
75016;SDS011;63577;39.766;2.720;2023-02-05T07:38:44;33.90;;;13.60;;
75016;SDS011;63577;39.766;2.720;2023-02-05T07:41:11;17.80;;;6.50;;
75016;SDS011;63577;39.766;2.720;2023-02-05T07:43:36;7.90;;;2.60;;
75016;SDS011;63577;39.766;2.720;2023-02-05T07:46:04;14.50;;;2.80;;
75016;SDS011;63577;39.766;2.720;2023-02-05T07:48:31;9.50;;;2.00;;
75016;SDS011;63577;39.766;2.720;2023-02-05T07:50:56;8.30;;;2.40;;
75016;SDS011;63577;39.766;2.720;2023-02-05T07:53:22;11.20;;;4.60;;
75016;SDS011;63577;39.766;2.720;2023-02-05T07:55:48;12.40;;;3.50;;
75016;SDS011;63577;39.766;2.720;2023-02-05T07:58:13;8.70;;;2.40;;
75016;SDS011;63577;39.766;2.720;2023-02-05T08:00:38;30.60;;;11.60;;
75016;SDS011;63577;39.766;2.720;2023-02-05T08:03:04;61.10;;;23.20;;
75016;SDS011;63577;39.766;2.720;2023-02-05T08:05:30;12.80;;;4.00;;
75016;SDS011;63577;39.766;2.720;2023-02-05T08:07:55;14.40;;;4.80;;
75016;SDS011;63577;39.766;2.720;2023-02-05T08:10:20;11.70;;;2.90;;
75016;SDS011;63577;39.766;2.720;2023-02-05T08:12:46;11.80;;;3.40;;
75016;SDS011;63577;39.766;2.720;2023-02-05T08:15:11;10.70;;;2.50;;
75016;SDS011;63577;39.766;2.720;2023-02-05T08:17:37;7.70;;;2.40;;
75016;SDS011;63577;39.766;2.720;2023-02-05T08:20:03;6.70;;;2.20;;
75016;SDS011;63577;39.766;2.720;2023-02-05T08:22:35;24.30;;;8.60;;
75016;SDS011;63577;39.766;2.720;2023-02-05T08:25:01;16.20;;;4.70;;
75016;SDS011;63577;39.766;2.720;2023-02-05T08:27:26;13.00;;;3.00;;
75016;SDS011;63577;39.766;2.720;2023-02-05T08:29:51;16.20;;;2.80;;
75016;SDS011;63577;39.766;2.720;2023-02-05T08:32:17;9.50;;;2.20;;
75016;SDS011;63577;39.766;2.720;2023-02-05T08:34:42;7.50;;;2.40;;
75016;SDS011;63577;39.766;2.720;2023-02-05T08:37:08;8.50;;;2.20;;
75016;SDS011;63577;39.766;2.720;2023-02-05T08:39:33;10.20;;;2.40;;
75016;SDS011;63577;39.766;2.720;2023-02-05T08:41:59;10.90;;;2.90;;
75016;SDS011;63577;39.766;2.720;2023-02-05T08:44:24;6.60;;;2.80;;
75016;SDS011;63577;39.766;2.720;2023-02-05T08:46:49;7.60;;;2.90;;
75016;SDS011;63577;39.766;2.720;2023-02-05T08:49:15;9.30;;;2.50;;
75016;SDS011;63577;39.766;2.720;2023-02-05T08:51:41;18.00;;;7.50;;
75016;SDS011;63577;39.766;2.720;2023-02-05T08:54:07;48.60;;;22.60;;
75016;SDS011;63577;39.766;2.720;2023-02-05T08:56:37;11.90;;;4.30;;
75016;SDS011;63577;39.766;2.720;2023-02-05T08:59:03;10.80;;;3.30;;
75016;SDS011;63577;39.766;2.720;2023-02-05T09:01:28;11.20;;;2.40;;
75016;SDS011;63577;39.766;2.720;2023-02-05T09:03:53;13.10;;;2.40;;
75016;SDS011;63577;39.766;2.720;2023-02-05T09:06:19;13.20;;;4.10;;
75016;SDS011;63577;39.766;2.720;2023-02-05T09:08:45;11.30;;;3.10;;
75016;SDS011;63577;39.766;2.720;2023-02-05T09:11:11;8.50;;;2.30;;
75016;SDS011;63577;39.766;2.720;2023-02-05T09:13:38;10.40;;;3.10;;
75016;SDS011;63577;39.766;2.720;2023-02-05T09:16:03;110.70;;;57.00;;
75016;SDS011;63577;39.766;2.720;2023-02-05T09:18:29;34.80;;;19.70;;
75016;SDS011;63577;39.766;2.720;2023-02-05T09:20:54;10.50;;;3.50;;
75016;SDS011;63577;39.766;2.720;2023-02-05T09:23:21;12.20;;;5.10;;
75016;SDS011;63577;39.766;2.720;2023-02-05T09:25:46;8.80;;;2.60;;
75016;SDS011;63577;39.766;2.720;2023-02-05T09:28:12;8.20;;;2.90;;
75016;SDS011;63577;39.766;2.720;2023-02-05T09:30:39;10.40;;;2.40;;
75016;SDS011;63577;39.766;2.720;2023-02-05T09:33:05;12.60;;;6.10;;
75016;SDS011;63577;39.766;2.720;2023-02-05T09:35:31;9.10;;;3.20;;
75016;SDS011;63577;39.766;2.720;2023-02-05T09:37:56;10.10;;;2.50;;
75016;SDS011;63577;39.766;2.720;2023-02-05T09:40:22;9.80;;;2.70;;
75016;SDS011;63577;39.766;2.720;2023-02-05T09:48:11;8.80;;;2.60;;
75016;SDS011;63577;39.766;2.720;2023-02-05T09:50:38;10.70;;;3.20;;
75016;SDS011;63577;39.766;2.720;2023-02-05T09:53:05;13.20;;;2.90;;
75016;SDS011;63577;39.766;2.720;2023-02-05T09:55:37;10.00;;;3.30;;
75016;SDS011;63577;39.766;2.720;2023-02-05T09:58:06;11.60;;;3.20;;
75016;SDS011;63577;39.766;2.720;2023-02-05T10:00:33;10.50;;;3.10;;
75016;SDS011;63577;39.766;2.720;2023-02-05T10:05:27;10.50;;;2.80;;
75016;SDS011;63577;39.766;2.720;2023-02-05T10:07:57;15.40;;;3.00;;
75016;SDS011;63577;39.766;2.720;2023-02-05T10:10:27;12.60;;;2.90;;
75016;SDS011;63577;39.766;2.720;2023-02-05T10:25:32;13.70;;;4.10;;
75016;SDS011;63577;39.766;2.720;2023-02-05T10:28:10;14.40;;;4.00;;
75016;SDS011;63577;39.766;2.720;2023-02-05T10:35:58;13.40;;;3.30;;
75016;SDS011;63577;39.766;2.720;2023-02-05T10:38:25;13.00;;;3.10;;
75016;SDS011;63577;39.766;2.720;2023-02-05T10:40:55;12.60;;;2.60;;
75016;SDS011;63577;39.766;2.720;2023-02-05T10:43:27;10.20;;;3.10;;
75016;SDS011;63577;39.766;2.720;2023-02-05T10:45:54;9.30;;;2.50;;
75016;SDS011;63577;39.766;2.720;2023-02-05T10:50:56;10.80;;;2.40;;
75016;SDS011;63577;39.766;2.720;2023-02-05T10:53:24;7.70;;;2.60;;
75016;SDS011;63577;39.766;2.720;2023-02-05T10:55:50;11.20;;;3.10;;
75016;SDS011;63577;39.766;2.720;2023-02-05T11:00:50;12.40;;;3.70;;
75016;SDS011;63577;39.766;2.720;2023-02-05T11:03:17;10.00;;;2.50;;
75016;SDS011;63577;39.766;2.720;2023-02-05T11:05:42;13.20;;;2.40;;
75016;SDS011;63577;39.766;2.720;2023-02-05T11:11:17;13.90;;;5.50;;
75016;SDS011;63577;39.766;2.720;2023-02-05T11:13:46;19.10;;;7.70;;
75016;SDS011;63577;39.766;2.720;2023-02-05T11:16:12;13.60;;;4.70;;
75016;SDS011;63577;39.766;2.720;2023-02-05T11:18:38;13.70;;;4.10;;
75016;SDS011;63577;39.766;2.720;2023-02-05T11:21:05;7.20;;;2.00;;
75016;SDS011;63577;39.766;2.720;2023-02-05T11:23:33;6.00;;;1.60;;
75016;SDS011;63577;39.766;2.720;2023-02-05T11:26:17;14.00;;;5.10;;
75016;SDS011;63577;39.766;2.720;2023-02-05T11:28:42;12.30;;;4.30;;
75016;SDS011;63577;39.766;2.720;2023-02-05T11:33:43;5.90;;;2.40;;
75016;SDS011;63577;39.766;2.720;2023-02-05T11:36:13;6.30;;;1.70;;
75016;SDS011;63577;39.766;2.720;2023-02-05T11:41:36;11.60;;;4.30;;
75016;SDS011;63577;39.766;2.720;2023-02-05T11:44:15;14.40;;;4.80;;
75016;SDS011;63577;39.766;2.720;2023-02-05T11:46:42;19.90;;;7.40;;
75016;SDS011;63577;39.766;2.720;2023-02-05T11:49:13;6.00;;;1.60;;
75016;SDS011;63577;39.766;2.720;2023-02-05T11:51:41;5.80;;;1.60;;
75016;SDS011;63577;39.766;2.720;2023-02-05T11:54:17;22.00;;;8.00;;
75016;SDS011;63577;39.766;2.720;2023-02-05T11:56:57;8.80;;;1.70;;
75016;SDS011;63577;39.766;2.720;2023-02-05T11:59:23;6.40;;;1.70;;
75016;SDS011;63577;39.766;2.720;2023-02-05T12:01:49;7.80;;;1.70;;
75016;SDS011;63577;39.766;2.720;2023-02-05T12:04:18;4.70;;;1.60;;
75016;SDS011;63577;39.766;2.720;2023-02-05T12:06:49;5.20;;;1.60;;
75016;SDS011;63577;39.766;2.720;2023-02-05T12:09:18;10.70;;;4.10;;
75016;SDS011;63577;39.766;2.720;2023-02-05T12:17:17;22.50;;;11.20;;
75016;SDS011;63577;39.766;2.720;2023-02-05T12:19:52;8.10;;;2.10;;
75016;SDS011;63577;39.766;2.720;2023-02-05T12:22:24;6.30;;;1.70;;
75016;SDS011;63577;39.766;2.720;2023-02-05T12:37:58;6.90;;;3.30;;
75016;SDS011;63577;39.766;2.720;2023-02-05T12:54:00;5.60;;;2.70;;
75016;SDS011;63577;39.766;2.720;2023-02-05T12:58:51;4.70;;;1.00;;
75016;SDS011;63577;39.766;2.720;2023-02-05T13:01:22;5.30;;;1.10;;
75016;SDS011;63577;39.766;2.720;2023-02-05T13:03:52;3.90;;;1.10;;
75016;SDS011;63577;39.766;2.720;2023-02-05T13:07:05;4.80;;;1.20;;
75016;SDS011;63577;39.766;2.720;2023-02-05T13:11:34;7.50;;;1.60;;
75016;SDS011;63577;39.766;2.720;2023-02-05T13:16:46;10.40;;;5.30;;
75016;SDS011;63577;39.766;2.720;2023-02-05T13:21:37;5.90;;;1.10;;
75016;SDS011;63577;39.766;2.720;2023-02-05T13:27:20;15.00;;;7.10;;
75016;SDS011;63577;39.766;2.720;2023-02-05T13:30:08;10.70;;;5.50;;
75016;SDS011;63577;39.766;2.720;2023-02-05T13:32:35;9.90;;;3.70;;
75016;SDS011;63577;39.766;2.720;2023-02-05T13:35:01;8.90;;;4.20;;
75016;SDS011;63577;39.766;2.720;2023-02-05T13:40:03;7.70;;;1.50;;
75016;SDS011;63577;39.766;2.720;2023-02-05T13:55:45;6.90;;;1.60;;
75016;SDS011;63577;39.766;2.720;2023-02-05T13:58:32;8.00;;;1.40;;
75016;SDS011;63577;39.766;2.720;2023-02-05T14:01:04;9.20;;;1.50;;
75016;SDS011;63577;39.766;2.720;2023-02-05T14:03:31;6.90;;;1.40;;
75016;SDS011;63577;39.766;2.720;2023-02-05T14:06:46;8.40;;;3.00;;
75016;SDS011;63577;39.766;2.720;2023-02-05T14:08:46;4.80;;;1.50;;
75016;SDS011;63577;39.766;2.720;2023-02-05T14:11:12;6.50;;;1.30;;
75016;SDS011;63577;39.766;2.720;2023-02-05T14:13:38;4.40;;;1.10;;
75016;SDS011;63577;39.766;2.720;2023-02-05T14:26:46;3.70;;;0.90;;
75016;SDS011;63577;39.766;2.720;2023-02-05T14:31:56;5.30;;;1.50;;
75016;SDS011;63577;39.766;2.720;2023-02-05T14:34:26;6.20;;;1.10;;
75016;SDS011;63577;39.766;2.720;2023-02-05T14:36:52;4.50;;;1.20;;
75016;SDS011;63577;39.766;2.720;2023-02-05T14:39:19;3.80;;;0.90;;
75016;SDS011;63577;39.766;2.720;2023-02-05T14:41:46;4.70;;;0.90;;
75016;SDS011;63577;39.766;2.720;2023-02-05T14:44:22;3.30;;;0.90;;
75016;SDS011;63577;39.766;2.720;2023-02-05T14:51:59;12.50;;;5.80;;
75016;SDS011;63577;39.766;2.720;2023-02-05T14:54:30;25.40;;;12.00;;
75016;SDS011;63577;39.766;2.720;2023-02-05T14:59:57;4.50;;;1.70;;
75016;SDS011;63577;39.766;2.720;2023-02-05T15:05:07;3.60;;;0.90;;
75016;SDS011;63577;39.766;2.720;2023-02-05T15:07:37;3.50;;;1.00;;
75016;SDS011;63577;39.766;2.720;2023-02-05T15:10:04;3.10;;;0.90;;
75016;SDS011;63577;39.766;2.720;2023-02-05T15:17:53;2.90;;;0.70;;
75016;SDS011;63577;39.766;2.720;2023-02-05T15:20:27;3.30;;;0.80;;
75016;SDS011;63577;39.766;2.720;2023-02-05T15:22:56;4.50;;;1.40;;
75016;SDS011;63577;39.766;2.720;2023-02-05T15:25:40;4.30;;;1.30;;
75016;SDS011;63577;39.766;2.720;2023-02-05T15:28:08;4.90;;;1.10;;
75016;SDS011;63577;39.766;2.720;2023-02-05T15:30:41;4.20;;;1.50;;
75016;SDS011;63577;39.766;2.720;2023-02-05T15:33:08;3.70;;;1.30;;
75016;SDS011;63577;39.766;2.720;2023-02-05T15:35:36;3.40;;;1.20;;
75016;SDS011;63577;39.766;2.720;2023-02-05T15:38:25;4.40;;;0.90;;
75016;SDS011;63577;39.766;2.720;2023-02-05T15:40:52;4.30;;;1.20;;
75016;SDS011;63577;39.766;2.720;2023-02-05T15:43:19;7.00;;;2.40;;
75016;SDS011;63577;39.766;2.720;2023-02-05T15:45:45;3.10;;;1.10;;
75016;SDS011;63577;39.766;2.720;2023-02-05T15:48:14;6.30;;;2.00;;
75016;SDS011;63577;39.766;2.720;2023-02-05T15:50:47;5.50;;;1.30;;
75016;SDS011;63577;39.766;2.720;2023-02-05T15:53:23;5.00;;;1.50;;
75016;SDS011;63577;39.766;2.720;2023-02-05T15:55:50;4.50;;;1.70;;
75016;SDS011;63577;39.766;2.720;2023-02-05T15:58:17;4.90;;;1.60;;
75016;SDS011;63577;39.766;2.720;2023-02-05T16:00:44;3.90;;;1.30;;
75016;SDS011;63577;39.766;2.720;2023-02-05T16:03:20;3.90;;;1.30;;
75016;SDS011;63577;39.766;2.720;2023-02-05T16:05:50;4.60;;;2.00;;
75016;SDS011;63577;39.766;2.720;2023-02-05T16:08:18;6.60;;;2.30;;
75016;SDS011;63577;39.766;2.720;2023-02-05T16:10:55;6.30;;;2.40;;
75016;SDS011;63577;39.766;2.720;2023-02-05T16:13:28;7.70;;;2.30;;
75016;SDS011;63577;39.766;2.720;2023-02-05T16:16:10;3.80;;;1.40;;
75016;SDS011;63577;39.766;2.720;2023-02-05T16:18:52;5.50;;;1.90;;
75016;SDS011;63577;39.766;2.720;2023-02-05T16:21:32;5.10;;;1.70;;
75016;SDS011;63577;39.766;2.720;2023-02-05T16:23:59;12.00;;;6.90;;
75016;SDS011;63577;39.766;2.720;2023-02-05T16:26:30;13.80;;;6.80;;
75016;SDS011;63577;39.766;2.720;2023-02-05T16:29:01;9.10;;;4.40;;
75016;SDS011;63577;39.766;2.720;2023-02-05T16:31:27;6.00;;;2.30;;
75016;SDS011;63577;39.766;2.720;2023-02-05T16:34:03;6.10;;;2.80;;
75016;SDS011;63577;39.766;2.720;2023-02-05T16:36:30;5.00;;;2.10;;
75016;SDS011;63577;39.766;2.720;2023-02-05T16:39:04;6.20;;;1.80;;
75016;SDS011;63577;39.766;2.720;2023-02-05T16:41:37;5.00;;;2.10;;
75016;SDS011;63577;39.766;2.720;2023-02-05T16:44:04;7.10;;;3.70;;
75016;SDS011;63577;39.766;2.720;2023-02-05T16:46:33;8.50;;;4.80;;
75016;SDS011;63577;39.766;2.720;2023-02-05T16:49:00;11.80;;;6.90;;
75016;SDS011;63577;39.766;2.720;2023-02-05T16:54:00;11.60;;;6.50;;
75016;SDS011;63577;39.766;2.720;2023-02-05T16:56:29;18.80;;;9.40;;
75016;SDS011;63577;39.766;2.720;2023-02-05T16:58:56;31.10;;;11.20;;
75016;SDS011;63577;39.766;2.720;2023-02-05T17:01:34;46.70;;;14.80;;
75016;SDS011;63577;39.766;2.720;2023-02-05T17:04:00;34.10;;;13.30;;
75016;SDS011;63577;39.766;2.720;2023-02-05T17:06:31;20.10;;;9.00;;
75016;SDS011;63577;39.766;2.720;2023-02-05T17:08:57;61.60;;;18.80;;
75016;SDS011;63577;39.766;2.720;2023-02-05T17:11:32;49.10;;;16.20;;
75016;SDS011;63577;39.766;2.720;2023-02-05T17:14:31;59.40;;;18.40;;
75016;SDS011;63577;39.766;2.720;2023-02-05T17:17:32;20.10;;;7.40;;
75016;SDS011;63577;39.766;2.720;2023-02-05T17:19:38;34.30;;;22.30;;
75016;SDS011;63577;39.766;2.720;2023-02-05T17:24:38;21.80;;;12.80;;
75016;SDS011;63577;39.766;2.720;2023-02-05T17:27:04;73.30;;;43.20;;
75016;SDS011;63577;39.766;2.720;2023-02-05T17:29:29;32.20;;;20.00;;
75016;SDS011;63577;39.766;2.720;2023-02-05T17:31:57;50.60;;;37.40;;